createdAt,value
2022-08-16T00:02:21.061Z,13.25
2022-08-16T00:04:47.486Z,13.40
2022-08-16T00:07:17.613Z,13.20
2022-08-16T00:09:43.945Z,12.60
2022-08-16T00:12:10.603Z,12.40
2022-08-16T00:14:37.015Z,12.50
2022-08-16T00:17:15.912Z,12.73
2022-08-16T00:19:47.604Z,12.90
2022-08-16T00:22:17.976Z,12.27
2022-08-16T00:24:47.163Z,14.15
2022-08-16T00:27:18.004Z,12.50
2022-08-16T00:29:44.401Z,11.82
2022-08-16T00:32:13.799Z,12.27
2022-08-16T00:34:52.590Z,12.07
2022-08-16T00:37:24.449Z,13.02
2022-08-16T00:39:58.233Z,11.95
2022-08-16T00:42:31.793Z,11.90
2022-08-16T00:45:25.119Z,12.95
2022-08-16T00:47:52.909Z,12.60
2022-08-16T00:50:36.210Z,11.70
2022-08-16T00:53:09.043Z,13.20
2022-08-16T00:55:39.954Z,13.38
2022-08-16T00:58:12.916Z,12.35
2022-08-16T01:00:44.691Z,13.38
2022-08-16T01:03:30.214Z,12.20
2022-08-16T01:05:59.096Z,13.52
2022-08-16T01:08:36.546Z,12.63
2022-08-16T01:11:05.350Z,12.43
2022-08-16T01:13:35.867Z,13.23
2022-08-16T01:16:20.097Z,12.32
2022-08-16T01:18:54.935Z,12.40
2022-08-16T01:21:46.011Z,11.35
2022-08-16T01:24:52.831Z,11.30
2022-08-16T01:27:24.084Z,13.18
2022-08-16T01:29:59.334Z,12.02
2022-08-16T01:32:31.901Z,12.50
2022-08-16T01:35:00.843Z,12.27
2022-08-16T01:37:27.188Z,12.65
2022-08-16T01:40:03.792Z,13.50
2022-08-16T01:42:33.896Z,13.13
2022-08-16T01:45:00.298Z,12.70
2022-08-16T01:47:28.183Z,12.82
2022-08-16T01:50:41.905Z,11.25
2022-08-16T01:52:46.490Z,12.38
2022-08-16T01:55:13.278Z,12.43
2022-08-16T01:57:40.967Z,12.80
2022-08-16T02:00:21.280Z,11.95
2022-08-16T02:02:56.054Z,12.65
2022-08-16T02:05:23.674Z,11.60
2022-08-16T02:07:51.917Z,12.32
2022-08-16T02:10:18.791Z,13.75
2022-08-16T02:12:52.043Z,13.52
2022-08-16T02:15:25.022Z,13.00
2022-08-16T02:17:52.947Z,12.23
2022-08-16T02:20:19.879Z,12.75
2022-08-16T02:22:53.662Z,12.60
2022-08-16T02:25:21.824Z,10.75
2022-08-16T02:27:50.820Z,12.30
2022-08-16T02:30:40.135Z,12.90
2022-08-16T02:33:11.570Z,12.18
2022-08-16T02:35:49.772Z,12.85
2022-08-16T02:38:21.656Z,12.15
2022-08-16T02:40:48.317Z,13.05
2022-08-16T02:43:15.775Z,11.80
2022-08-16T02:45:42.248Z,11.90
2022-08-16T02:48:29.330Z,11.85
2022-08-16T02:51:06.471Z,12.30
2022-08-16T02:53:44.646Z,11.63
2022-08-16T02:56:16.251Z,12.02
2022-08-16T02:58:49.345Z,12.52
2022-08-16T03:01:24.710Z,12.38
2022-08-16T03:04:40.087Z,13.50
2022-08-16T03:06:48.503Z,12.13
2022-08-16T03:09:17.279Z,13.23
2022-08-16T03:11:44.606Z,13.15
2022-08-16T03:14:12.310Z,12.40
2022-08-16T03:16:42.281Z,13.20
2022-08-16T03:19:26.075Z,12.38
2022-08-16T03:22:12.414Z,12.20
2022-08-16T03:24:46.195Z,14.38
2022-08-16T03:27:12.687Z,12.77
2022-08-16T03:29:40.215Z,13.15
2022-08-16T03:32:20.548Z,13.23
2022-08-16T03:34:50.073Z,12.88
2022-08-16T03:37:17.027Z,13.93
2022-08-16T03:39:43.513Z,13.27
2022-08-16T03:42:10.214Z,12.88
2022-08-16T03:44:43.811Z,12.80
2022-08-16T03:47:12.029Z,12.63
2022-08-16T03:49:38.543Z,13.15
2022-08-16T03:52:05.725Z,13.50
2022-08-16T03:54:32.054Z,13.18
2022-08-16T03:57:02.928Z,12.50
2022-08-16T03:59:32.118Z,12.70
2022-08-16T04:02:02.365Z,11.45
2022-08-16T04:04:33.572Z,12.65
2022-08-16T04:07:02.765Z,13.07
2022-08-16T04:09:35.357Z,12.80
2022-08-16T04:12:04.790Z,12.18
2022-08-16T04:14:38.303Z,12.95
2022-08-16T04:17:13.587Z,12.43
2022-08-16T04:19:45.479Z,12.25
2022-08-16T04:22:13.051Z,12.48
2022-08-16T04:24:39.451Z,11.95
2022-08-16T04:27:09.126Z,12.63
2022-08-16T04:29:44.142Z,13.35
2022-08-16T04:32:12.575Z,12.15
2022-08-16T04:34:40.471Z,12.60
2022-08-16T04:37:07.449Z,12.32
2022-08-16T04:39:45.927Z,12.90
2022-08-16T04:42:16.131Z,12.75
2022-08-16T04:44:53.937Z,12.85
2022-08-16T04:47:24.157Z,13.32
2022-08-16T04:49:52.484Z,13.13
2022-08-16T04:52:32.650Z,13.35
2022-08-16T04:55:01.279Z,12.43
2022-08-16T04:57:30.129Z,12.65
2022-08-16T04:59:56.747Z,12.02
2022-08-16T05:02:41.742Z,12.80
2022-08-16T05:05:17.888Z,12.30
2022-08-16T05:07:57.778Z,13.38
2022-08-16T05:10:24.475Z,12.25
2022-08-16T05:12:50.908Z,12.98
2022-08-16T05:15:18.838Z,12.15
2022-08-16T05:17:47.086Z,11.57
2022-08-16T05:20:39.403Z,11.75
2022-08-16T05:22:59.745Z,12.13
2022-08-16T05:25:29.638Z,11.68
2022-08-16T05:28:13.472Z,11.07
2022-08-16T05:30:40.776Z,11.63
2022-08-16T05:33:16.152Z,12.30
2022-08-16T05:35:43.515Z,12.38
2022-08-16T05:38:33.114Z,11.80
2022-08-16T05:41:00.889Z,12.35
2022-08-16T05:43:32.008Z,12.38
2022-08-16T05:46:29.056Z,12.18
2022-08-16T05:49:01.745Z,11.65
2022-08-16T05:51:37.609Z,12.63
2022-08-16T05:54:06.800Z,12.75
2022-08-16T05:56:34.106Z,10.82
2022-08-16T05:59:06.303Z,11.15
2022-08-16T06:01:38.016Z,11.23
2022-08-16T06:04:12.604Z,11.63
2022-08-16T06:06:41.524Z,11.85
2022-08-16T06:09:11.658Z,10.98
2022-08-16T06:11:43.097Z,11.00
2022-08-16T06:14:10.186Z,11.00
2022-08-16T06:16:36.508Z,11.60
2022-08-16T06:19:04.699Z,10.48
2022-08-16T06:21:36.922Z,9.75
2022-08-16T06:24:54.924Z,10.57
2022-08-16T06:26:57.821Z,9.98
2022-08-16T06:29:25.142Z,10.02
2022-08-16T06:31:51.847Z,10.00
2022-08-16T06:34:56.168Z,8.63
2022-08-16T06:37:05.887Z,9.07
2022-08-16T06:39:34.548Z,10.43
2022-08-16T06:42:18.287Z,10.20
2022-08-16T06:44:46.003Z,9.35
2022-08-16T06:47:12.827Z,8.07
2022-08-16T06:49:44.247Z,8.88
2022-08-16T06:53:00.047Z,8.52
2022-08-16T06:55:07.638Z,7.88
2022-08-16T06:57:40.379Z,6.72
2022-08-16T07:00:17.527Z,7.60
2022-08-16T07:02:52.227Z,7.30
2022-08-16T07:05:19.805Z,7.85
2022-08-16T07:07:47.682Z,7.75
2022-08-16T07:10:18.792Z,7.35
2022-08-16T07:13:04.029Z,7.40
2022-08-16T07:15:35.047Z,8.38
2022-08-16T07:18:01.577Z,8.35
2022-08-16T07:20:47.124Z,6.90
2022-08-16T07:23:14.865Z,7.75
2022-08-16T07:25:41.892Z,7.30
2022-08-16T07:28:11.856Z,6.88
2022-08-16T07:30:45.924Z,7.13
2022-08-16T07:33:16.300Z,7.55
2022-08-16T07:35:44.346Z,7.25
2022-08-16T07:38:19.818Z,6.55
2022-08-16T07:41:00.747Z,6.65
2022-08-16T07:43:28.751Z,6.22
2022-08-16T07:45:56.107Z,6.65
2022-08-16T07:48:22.500Z,6.80
2022-08-16T07:50:55.740Z,6.18
2022-08-16T07:53:24.376Z,6.47
2022-08-16T07:55:55.183Z,6.07
2022-08-16T07:58:34.926Z,6.68
2022-08-16T08:01:10.511Z,6.88
2022-08-16T08:03:47.677Z,6.90
2022-08-16T08:06:16.738Z,6.50
2022-08-16T08:08:51.700Z,5.57
2022-08-16T08:11:19.606Z,6.32
2022-08-16T08:13:48.367Z,6.10
2022-08-16T08:16:16.962Z,6.15
2022-08-16T08:18:50.543Z,6.45
2022-08-16T08:21:27.276Z,5.93
2022-08-16T08:23:54.762Z,5.85
2022-08-16T08:26:21.111Z,5.47
2022-08-16T08:28:47.463Z,5.85
2022-08-16T08:31:16.184Z,6.22
2022-08-16T08:33:47.118Z,5.90
2022-08-16T08:36:24.060Z,5.97
2022-08-16T08:38:59.697Z,5.65
2022-08-16T08:41:28.559Z,6.00
2022-08-16T08:43:56.708Z,5.63
2022-08-16T08:46:24.908Z,6.68
2022-08-16T08:48:59.445Z,5.53
2022-08-16T08:51:27.584Z,5.60
2022-08-16T08:53:58.749Z,5.65
2022-08-16T08:56:25.595Z,5.63
2022-08-16T08:58:58.219Z,5.53
2022-08-16T09:01:36.854Z,5.25
2022-08-16T09:04:14.342Z,5.97
2022-08-16T09:06:43.032Z,5.65
2022-08-16T09:09:16.992Z,5.40
2022-08-16T09:11:45.130Z,5.28
2022-08-16T09:14:24.219Z,5.50
2022-08-16T09:17:02.695Z,5.35
2022-08-16T09:19:33.875Z,5.80
2022-08-16T09:22:00.856Z,4.97
2022-08-16T09:24:46.830Z,5.55
2022-08-16T09:27:13.481Z,5.13
2022-08-16T09:29:45.361Z,5.00
2022-08-16T09:32:12.381Z,5.20
2022-08-16T09:34:38.801Z,5.82
2022-08-16T09:37:14.112Z,5.43
2022-08-16T09:39:49.633Z,4.90
2022-08-16T09:42:16.843Z,5.22
2022-08-16T09:45:10.643Z,5.00
2022-08-16T09:47:56.142Z,5.00
2022-08-16T09:50:22.856Z,4.30
2022-08-16T09:52:49.695Z,4.80
2022-08-16T09:55:16.153Z,5.03
2022-08-16T09:57:42.492Z,4.95
2022-08-16T10:00:42.317Z,5.40
2022-08-16T10:03:06.019Z,5.20
2022-08-16T10:05:35.519Z,4.90
2022-08-16T10:08:01.850Z,4.85
2022-08-16T10:10:48.234Z,5.03
2022-08-16T10:13:16.192Z,4.75
2022-08-16T10:15:54.950Z,4.75
2022-08-16T10:18:56.124Z,4.85
2022-08-16T10:21:08.993Z,5.53
2022-08-16T10:23:35.576Z,5.25
2022-08-16T10:27:17.380Z,5.47
2022-08-16T10:28:50.285Z,5.10
2022-08-16T10:31:45.441Z,4.85
2022-08-16T10:34:03.733Z,5.05
2022-08-16T10:36:39.420Z,5.22
2022-08-16T10:39:08.574Z,5.57
2022-08-16T10:41:35.320Z,5.68
2022-08-16T10:44:02.231Z,5.55
2022-08-16T10:46:39.651Z,5.35
2022-08-16T10:49:10.423Z,4.72
2022-08-16T10:52:02.364Z,5.32
2022-08-16T10:54:29.829Z,4.90
2022-08-16T10:57:00.443Z,6.47
2022-08-16T10:59:32.763Z,6.70
2022-08-16T11:05:08.524Z,5.13
2022-08-16T11:07:51.382Z,5.85
2022-08-16T11:13:58.218Z,4.38
2022-08-16T11:19:05.195Z,5.10
2022-08-16T11:21:33.128Z,4.60
2022-08-16T11:24:01.545Z,5.03
2022-08-16T11:26:29.029Z,4.78
2022-08-16T11:31:45.420Z,4.63
2022-08-16T11:34:16.754Z,4.43
2022-08-16T11:36:53.713Z,4.47
2022-08-16T11:39:26.934Z,4.63
2022-08-16T11:41:54.915Z,4.55
2022-08-16T11:44:56.106Z,4.82
2022-08-16T11:47:08.728Z,4.53
2022-08-16T11:49:35.094Z,5.30
2022-08-16T11:52:01.455Z,4.82
2022-08-16T11:54:36.402Z,4.72
2022-08-16T11:57:04.011Z,5.07
2022-08-16T11:59:36.511Z,4.95
2022-08-16T12:02:32.345Z,4.95
2022-08-16T12:04:54.187Z,4.97
2022-08-16T12:07:21.278Z,5.13
2022-08-16T12:09:50.775Z,4.85
2022-08-16T12:12:19.580Z,4.20
2022-08-16T12:14:45.904Z,4.55
2022-08-16T12:17:12.204Z,5.13
2022-08-16T12:19:38.585Z,4.90
2022-08-16T12:22:19.140Z,4.10
2022-08-16T12:24:51.985Z,5.25
2022-08-16T12:27:20.308Z,5.28
2022-08-16T12:29:49.727Z,5.43
2022-08-16T12:32:35.818Z,5.57
2022-08-16T12:35:04.554Z,5.95
2022-08-16T12:37:31.669Z,5.43
2022-08-16T12:39:58.153Z,4.60
2022-08-16T12:42:34.791Z,5.32
2022-08-16T12:45:05.078Z,5.88
2022-08-16T12:47:31.540Z,5.38
2022-08-16T12:49:58.264Z,5.07
2022-08-16T12:52:33.076Z,5.10
2022-08-16T12:55:01.420Z,4.45
2022-08-16T12:57:36.533Z,5.43
2022-08-16T13:00:08.145Z,5.20
2022-08-16T13:02:36.325Z,5.30
2022-08-16T13:05:03.691Z,5.32
2022-08-16T13:07:37.583Z,5.10
2022-08-16T13:10:20.727Z,4.90
2022-08-16T13:12:51.445Z,4.80
2022-08-16T13:15:21.780Z,5.43
2022-08-16T13:17:50.608Z,5.22
2022-08-16T13:20:20.870Z,4.88
2022-08-16T13:22:58.897Z,5.03
2022-08-16T13:25:26.448Z,4.70
2022-08-16T13:28:02.987Z,4.97
2022-08-16T13:30:37.307Z,8.00
2022-08-16T13:33:11.334Z,5.97
2022-08-16T13:35:42.891Z,4.90
2022-08-16T13:38:09.901Z,5.28
2022-08-16T13:40:37.454Z,4.80
2022-08-16T13:43:04.140Z,5.22
2022-08-16T13:45:36.235Z,5.93
2022-08-16T13:48:04.399Z,5.90
2022-08-16T13:50:51.583Z,4.80
2022-08-16T13:53:18.577Z,4.97
2022-08-16T13:55:58.453Z,5.37
2022-08-16T13:58:34.811Z,5.00
2022-08-16T14:01:04.489Z,5.15
2022-08-16T14:03:36.891Z,5.78
2022-08-16T14:06:03.594Z,5.57
2022-08-16T14:08:29.965Z,5.28
2022-08-16T14:10:56.408Z,5.35
2022-08-16T14:13:23.495Z,5.50
2022-08-16T14:15:50.275Z,5.05
2022-08-16T14:18:20.056Z,4.47
2022-08-16T14:20:48.458Z,5.22
2022-08-16T14:23:15.365Z,4.65
2022-08-16T14:25:41.860Z,5.40
2022-08-16T14:28:09.740Z,5.45
2022-08-16T14:30:36.630Z,6.00
2022-08-16T14:33:06.865Z,5.43
2022-08-16T14:35:48.554Z,5.13
2022-08-16T14:40:51.093Z,5.00
2022-08-16T14:43:21.133Z,4.72
2022-08-16T14:45:50.330Z,5.20
2022-08-16T14:48:21.511Z,5.15
2022-08-16T14:50:51.783Z,5.60
2022-08-16T14:53:18.098Z,4.85
2022-08-16T14:55:44.409Z,5.43
2022-08-16T14:58:19.532Z,5.15
2022-08-16T15:00:50.329Z,5.00
2022-08-16T15:03:18.856Z,5.18
2022-08-16T15:05:48.257Z,5.40
2022-08-16T15:08:15.188Z,5.78
2022-08-16T15:10:45.691Z,4.82
2022-08-16T15:13:15.111Z,5.57
2022-08-16T15:15:42.764Z,5.13
2022-08-16T15:18:11.761Z,5.00
2022-08-16T15:20:39.813Z,4.75
2022-08-16T15:23:08.229Z,4.95
2022-08-16T15:25:41.418Z,5.40
2022-08-16T15:28:23.951Z,5.20
2022-08-16T15:31:00.149Z,5.43
2022-08-16T15:33:27.511Z,5.32
2022-08-16T15:35:55.401Z,5.05
2022-08-16T15:38:57.693Z,5.50
2022-08-16T15:41:34.127Z,4.97
2022-08-16T15:44:05.149Z,5.43
2022-08-16T15:46:55.543Z,4.75
2022-08-16T15:49:34.809Z,5.30
2022-08-16T15:52:15.776Z,5.40
2022-08-16T15:54:53.576Z,5.68
2022-08-16T15:57:24.394Z,4.38
2022-08-16T15:59:52.808Z,5.15
2022-08-16T16:02:29.305Z,4.80
2022-08-16T16:05:00.674Z,4.82
2022-08-16T16:07:27.965Z,4.55
2022-08-16T16:09:59.398Z,7.68
2022-08-16T16:15:16.747Z,5.35
2022-08-16T16:17:43.078Z,5.10
2022-08-16T16:20:14.839Z,4.60
2022-08-16T16:22:42.129Z,4.97
2022-08-16T16:25:09.155Z,5.03
2022-08-16T16:27:36.222Z,5.20
2022-08-16T16:30:33.590Z,5.00
2022-08-16T16:32:51.505Z,4.93
2022-08-16T16:35:17.845Z,5.03
2022-08-16T16:37:44.285Z,5.32
2022-08-16T16:40:12.961Z,5.75
2022-08-16T16:42:50.871Z,4.82
2022-08-16T16:45:19.364Z,6.13
2022-08-16T16:47:45.844Z,4.82
2022-08-16T16:50:12.553Z,5.10
2022-08-16T16:52:44.127Z,4.70
2022-08-16T16:55:12.409Z,5.10
2022-08-16T16:57:38.993Z,5.20
2022-08-16T17:00:29.700Z,5.32
2022-08-16T17:02:56.327Z,4.75
2022-08-16T17:05:24.028Z,5.97
2022-08-16T17:07:50.451Z,5.28
2022-08-16T17:10:45.973Z,5.20
2022-08-16T17:13:05.449Z,6.53
2022-08-16T17:15:36.432Z,5.35
2022-08-16T17:18:04.304Z,5.05
2022-08-16T17:20:50.056Z,5.30
2022-08-16T17:23:19.656Z,5.35
2022-08-16T17:25:45.989Z,5.20
2022-08-16T17:28:58.570Z,5.15
2022-08-16T17:31:05.550Z,5.30
2022-08-16T17:33:37.044Z,5.50
2022-08-16T17:36:05.477Z,5.18
2022-08-16T17:38:43.873Z,5.65
2022-08-16T17:41:12.387Z,4.70
2022-08-16T17:43:44.577Z,5.05
2022-08-16T17:46:51.527Z,6.13
2022-08-16T17:48:58.460Z,4.80
2022-08-16T17:51:24.903Z,5.05
2022-08-16T17:53:51.255Z,5.85
2022-08-16T17:56:17.653Z,4.93
2022-08-16T17:58:43.979Z,6.22
2022-08-16T18:01:10.472Z,5.95
2022-08-16T18:04:07.803Z,5.60
2022-08-16T18:06:25.953Z,5.60
2022-08-16T18:09:00.256Z,5.75
2022-08-16T18:11:28.276Z,5.78
2022-08-16T18:13:55.035Z,6.20
2022-08-16T18:16:21.461Z,6.03
2022-08-16T18:18:47.797Z,5.35
2022-08-16T18:21:14.996Z,5.78
2022-08-16T18:23:41.456Z,5.72
2022-08-16T18:26:08.129Z,5.65
2022-08-16T18:28:34.684Z,6.18
2022-08-16T18:31:05.554Z,6.30
2022-08-16T18:33:33.055Z,6.18
2022-08-16T18:36:05.786Z,6.15
2022-08-16T18:38:47.915Z,5.40
2022-08-16T18:41:14.614Z,5.50
2022-08-16T18:44:22.868Z,6.18
2022-08-16T18:46:27.331Z,6.55
2022-08-16T18:48:53.637Z,5.82
2022-08-16T18:51:24.808Z,6.03
2022-08-16T18:53:51.669Z,6.28
2022-08-16T18:56:17.972Z,6.55
2022-08-16T18:58:44.300Z,6.57
2022-08-16T19:01:10.692Z,6.15
2022-08-16T19:03:37.060Z,5.68
2022-08-16T19:06:11.462Z,6.78
2022-08-16T19:08:41.455Z,6.40
2022-08-16T19:11:13.375Z,6.38
2022-08-16T19:13:41.002Z,6.70
2022-08-16T19:16:07.449Z,6.63
2022-08-16T19:18:36.335Z,6.50
2022-08-16T19:21:04.406Z,7.40
2022-08-16T19:23:32.546Z,6.65
2022-08-16T19:26:03.430Z,7.18
2022-08-16T19:28:51.641Z,6.20
2022-08-16T19:31:28.755Z,6.53
2022-08-16T19:33:56.439Z,7.57
2022-08-16T19:36:31.172Z,6.82
2022-08-16T19:39:04.119Z,8.15
2022-08-16T19:41:33.262Z,7.85
2022-08-16T19:43:59.604Z,7.80
2022-08-16T19:46:25.967Z,7.07
2022-08-16T19:48:52.282Z,7.30
2022-08-16T19:51:21.584Z,7.88
2022-08-16T19:53:48.073Z,7.30
2022-08-16T19:56:14.700Z,7.40
2022-08-16T19:58:51.155Z,7.85
2022-08-16T20:01:27.429Z,6.75
2022-08-16T20:03:53.776Z,8.00
2022-08-16T20:06:35.824Z,7.72
2022-08-16T20:09:04.897Z,7.38
2022-08-16T20:11:31.229Z,7.53
2022-08-16T20:13:57.570Z,7.57
2022-08-16T20:16:24.011Z,7.40
2022-08-16T20:18:50.327Z,7.35
2022-08-16T20:21:16.705Z,7.18
2022-08-16T20:23:43.108Z,7.65
2022-08-16T20:26:09.485Z,8.18
2022-08-16T20:28:52.943Z,7.60
2022-08-16T20:31:24.522Z,7.45
2022-08-16T20:33:51.927Z,7.00
2022-08-16T20:36:18.248Z,7.40
2022-08-16T20:38:45.289Z,8.30
2022-08-16T20:41:14.031Z,7.13
2022-08-16T20:43:40.329Z,7.53
2022-08-16T20:46:06.755Z,7.22
2022-08-16T20:48:33.071Z,7.80
2022-08-16T20:50:59.405Z,7.95
2022-08-16T20:53:26.979Z,7.65
2022-08-16T20:55:53.380Z,7.28
2022-08-16T20:58:19.706Z,8.25
2022-08-16T21:00:46.038Z,8.20
2022-08-16T21:03:13.255Z,7.82
2022-08-16T21:05:39.760Z,7.30
2022-08-16T21:08:27.912Z,7.43
2022-08-16T21:10:52.520Z,8.40
2022-08-16T21:13:19.125Z,7.68
2022-08-16T21:15:45.497Z,8.50
2022-08-16T21:18:11.875Z,7.15
2022-08-16T21:20:38.543Z,7.97
2022-08-16T21:23:07.502Z,8.30
2022-08-16T21:25:35.606Z,8.18
2022-08-16T21:28:38.796Z,8.25
2022-08-16T21:30:50.827Z,8.10
2022-08-16T21:33:18.925Z,7.43
2022-08-16T21:35:47.243Z,8.20
2022-08-16T21:38:29.553Z,7.50
2022-08-16T21:43:26.415Z,7.55
2022-08-16T21:45:55.016Z,7.80
2022-08-16T21:48:34.830Z,7.70
2022-08-16T21:51:08.300Z,8.50
2022-08-16T21:53:35.875Z,8.07
2022-08-16T21:56:03.291Z,8.02
2022-08-16T21:58:30.342Z,8.75
2022-08-16T22:00:56.812Z,8.10
2022-08-16T22:03:23.677Z,8.23
2022-08-16T22:06:11.075Z,7.90
2022-08-16T22:08:48.055Z,8.07
2022-08-16T22:11:20.438Z,8.02
2022-08-16T22:13:56.400Z,8.35
2022-08-16T22:16:36.852Z,8.48
2022-08-16T22:19:05.019Z,8.90
2022-08-16T22:21:32.523Z,8.13
2022-08-16T22:23:59.261Z,8.95
2022-08-16T22:26:30.005Z,8.93
2022-08-16T22:28:59.068Z,9.00
2022-08-16T22:31:25.562Z,8.80
2022-08-16T22:33:51.953Z,7.57
2022-08-16T22:36:18.320Z,8.40
2022-08-16T22:38:53.620Z,8.93
2022-08-16T22:41:22.262Z,8.80
2022-08-16T22:43:48.581Z,9.40
2022-08-16T22:46:15.005Z,9.07
2022-08-16T22:48:42.714Z,8.93
2022-08-16T22:51:09.417Z,9.48
2022-08-16T22:53:37.350Z,9.45
2022-08-16T22:56:04.499Z,8.93
2022-08-16T22:58:36.676Z,8.85
2022-08-16T23:01:06.211Z,9.88
2022-08-16T23:03:33.208Z,9.32
2022-08-16T23:05:59.703Z,9.25
2022-08-16T23:08:38.652Z,9.45
2022-08-16T23:11:09.292Z,10.25
2022-08-16T23:13:35.897Z,9.93
2022-08-16T23:16:11.110Z,9.65
2022-08-16T23:18:40.219Z,9.98
2022-08-16T23:21:10.347Z,9.50
2022-08-16T23:23:37.439Z,9.48
2022-08-16T23:26:44.975Z,9.73
2022-08-16T23:28:51.673Z,9.40
2022-08-16T23:31:18.348Z,9.02
2022-08-16T23:33:44.779Z,10.20
2022-08-16T23:36:11.336Z,9.65
2022-08-16T23:38:39.373Z,9.60
2022-08-16T23:41:11.321Z,9.50
2022-08-16T23:43:39.858Z,9.05
2022-08-16T23:46:06.180Z,10.10
2022-08-16T23:50:01.003Z,9.80
2022-08-16T23:51:21.125Z,9.75
2022-08-16T23:53:47.497Z,9.40
2022-08-16T23:56:19.975Z,10.27
2022-08-16T23:58:54.394Z,9.60
